Time;durP1;ratioP1;P1;durP2;ratioP2;P2;SDS_P1;SDS_P2;PMS_P1;PMS_P2;Temp;Humidity;BMP_temperature;BMP_pressure;BME280_temperature;BME280_humidity;BME280_pressure;Samples;Min_cycle;Max_cycle;Signal;HPM_P1;HPM_P2
2021/01/14 00:00:51;;;;;;;15.88;10.85;;;2.80;99.90;;;;;;4977908;28;20812;-73
2021/01/14 00:03:37;;;;;;;14.35;10.80;;;2.80;99.90;;;;;;4984297;28;20298;-73
2021/01/14 00:06:21;;;;;;;16.52;12.45;;;2.80;99.90;;;;;;4979156;28;20211;-72
2021/01/14 00:09:06;;;;;;;14.65;10.70;;;2.70;99.90;;;;;;4982917;28;20234;-72
2021/01/14 00:11:52;;;;;;;14.50;11.45;;;2.80;99.90;;;;;;4982008;28;20215;-72
2021/01/14 00:14:38;;;;;;;17.45;11.27;;;2.80;99.90;;;;;;4983670;28;20211;-72
2021/01/14 00:17:23;;;;;;;16.85;12.32;;;2.80;99.90;;;;;;4993415;28;20237;-73
2021/01/14 00:20:11;;;;;;;15.68;11.75;;;2.90;99.90;;;;;;4986960;28;21015;-72
2021/01/14 00:22:56;;;;;;;17.25;12.07;;;2.90;99.90;;;;;;4979798;28;20978;-72
2021/01/14 00:25:41;;;;;;;15.90;12.02;;;2.80;99.90;;;;;;4983710;28;21630;-73
2021/01/14 00:28:26;;;;;;;16.08;12.77;;;2.90;99.90;;;;;;4983896;28;20234;-73
2021/01/14 00:31:12;;;;;;;18.80;12.25;;;2.90;99.90;;;;;;4975098;28;20589;-72
2021/01/14 00:33:57;;;;;;;15.27;11.43;;;2.90;99.90;;;;;;4974787;28;20211;-72
2021/01/14 00:39:47;;;;;;;15.77;11.00;;;2.90;99.90;;;;;;4974451;28;20270;-72
2021/01/14 00:42:32;;;;;;;13.30;9.45;;;3.00;99.90;;;;;;4975493;28;20629;-72
2021/01/14 00:45:17;;;;;;;13.27;10.32;;;3.00;99.90;;;;;;4990123;28;20697;-72
2021/01/14 00:48:03;;;;;;;13.95;10.38;;;3.10;99.90;;;;;;4984684;28;20258;-72
2021/01/14 00:50:49;;;;;;;13.50;9.15;;;3.00;99.90;;;;;;4987093;28;20278;-72
2021/01/14 00:53:38;;;;;;;14.98;9.15;;;3.00;99.90;;;;;;4978651;28;20239;-72
2021/01/14 00:56:31;;;;;;;14.77;9.98;;;3.00;99.90;;;;;;4982290;28;20274;-72
2021/01/14 00:59:15;;;;;;;15.52;9.13;;;3.10;99.90;;;;;;4987280;28;20231;-72
2021/01/14 01:02:01;;;;;;;12.48;8.63;;;3.20;99.90;;;;;;4982182;28;20298;-72
2021/01/14 01:04:46;;;;;;;11.45;8.20;;;3.20;99.90;;;;;;4983676;28;20571;-72
2021/01/14 01:07:31;;;;;;;11.48;8.07;;;3.20;99.90;;;;;;4980023;28;20961;-72
2021/01/14 01:10:17;;;;;;;11.38;6.55;;;3.20;99.90;;;;;;4987600;28;21646;-72
2021/01/14 01:13:03;;;;;;;10.85;7.78;;;3.30;99.90;;;;;;4991561;28;20226;-72
2021/01/14 01:15:48;;;;;;;11.38;5.90;;;3.30;99.90;;;;;;4981767;28;20230;-72
2021/01/14 01:18:33;;;;;;;11.00;6.30;;;3.40;99.90;;;;;;4981963;28;20262;-73
2021/01/14 01:21:18;;;;;;;7.53;5.60;;;3.50;99.90;;;;;;4983768;28;20677;-72
2021/01/14 01:24:04;;;;;;;8.40;6.50;;;3.50;99.90;;;;;;4985058;28;20214;-72
2021/01/14 01:26:53;;;;;;;13.80;5.75;;;3.50;99.90;;;;;;4982837;28;20629;-73
2021/01/14 01:29:38;;;;;;;10.43;6.25;;;3.60;99.90;;;;;;4984017;28;20273;-72
2021/01/14 01:32:24;;;;;;;8.05;5.28;;;3.60;99.90;;;;;;4981856;28;20277;-73
2021/01/14 01:35:10;;;;;;;8.75;5.88;;;3.60;99.90;;;;;;4984772;28;20202;-72
2021/01/14 01:37:56;;;;;;;13.38;5.40;;;3.60;99.90;;;;;;4984055;28;20204;-72
2021/01/14 01:40:41;;;;;;;11.07;6.18;;;3.60;99.90;;;;;;4983646;28;20289;-72
2021/01/14 01:43:27;;;;;;;11.43;6.10;;;3.60;99.90;;;;;;4983564;28;20863;-73
2021/01/14 01:46:23;;;;;;;12.13;5.40;;;3.60;99.90;;;;;;4987086;28;20255;-72
2021/01/14 01:49:08;;;;;;;9.10;5.28;;;3.60;99.90;;;;;;4985544;28;20266;-72
2021/01/14 01:51:53;;;;;;;16.02;7.15;;;3.60;99.90;;;;;;4984574;28;20277;-72
2021/01/14 01:54:38;;;;;;;10.65;5.82;;;3.50;99.90;;;;;;4986655;28;20243;-72
2021/01/14 01:57:23;;;;;;;7.47;5.65;;;3.50;99.90;;;;;;4986194;28;20207;-73
2021/01/14 02:00:10;;;;;;;17.95;6.38;;;3.30;99.90;;;;;;4985686;28;20299;-72
2021/01/14 02:02:55;;;;;;;10.13;5.80;;;3.30;99.90;;;;;;4984847;28;20203;-72
2021/01/14 02:05:40;;;;;;;9.43;5.72;;;3.30;99.90;;;;;;4979798;28;20250;-73
2021/01/14 02:08:34;;;;;;;8.80;5.32;;;3.40;99.90;;;;;;4981839;28;20222;-72
2021/01/14 02:11:27;;;;;;;11.48;6.13;;;3.50;99.90;;;;;;4984412;28;20203;-74
2021/01/14 02:14:19;;;;;;;12.00;6.40;;;3.50;99.90;;;;;;4987448;28;20214;-73
2021/01/14 02:17:05;;;;;;;8.77;5.25;;;3.40;99.90;;;;;;4986237;28;20705;-74
2021/01/14 02:19:52;;;;;;;11.02;6.00;;;3.40;99.90;;;;;;4985257;28;20305;-73
2021/01/14 02:22:42;;;;;;;27.10;6.10;;;3.40;99.90;;;;;;4981210;28;20222;-73
2021/01/14 02:25:32;;;;;;;7.25;5.35;;;3.40;99.90;;;;;;4993147;28;20214;-73
2021/01/14 02:28:18;;;;;;;9.65;5.50;;;3.40;99.90;;;;;;4986132;28;20222;-73
2021/01/14 02:31:06;;;;;;;7.43;5.80;;;3.30;99.90;;;;;;4983893;28;20622;-73
2021/01/14 02:33:52;;;;;;;8.30;5.25;;;3.30;99.90;;;;;;4986810;28;20202;-74
2021/01/14 02:36:37;;;;;;;7.75;5.25;;;3.40;99.90;;;;;;4982518;28;20666;-73
2021/01/14 02:39:22;;;;;;;12.27;6.20;;;3.40;99.90;;;;;;4979460;28;20242;-73
2021/01/14 02:42:08;;;;;;;10.15;6.43;;;3.30;99.90;;;;;;4988605;28;20210;-73
2021/01/14 02:44:54;;;;;;;11.70;6.38;;;3.30;99.90;;;;;;4983961;28;20614;-73
2021/01/14 02:47:44;;;;;;;10.77;5.40;;;3.30;99.90;;;;;;4991109;28;20550;-73
2021/01/14 02:50:34;;;;;;;10.77;5.70;;;3.30;99.90;;;;;;4986509;28;20740;-73
2021/01/14 02:53:22;;;;;;;11.60;7.47;;;3.40;99.90;;;;;;4983973;28;20623;-73
2021/01/14 02:56:07;;;;;;;11.40;5.35;;;3.40;99.90;;;;;;4984582;28;20291;-73
2021/01/14 02:58:56;;;;;;;9.95;5.43;;;3.50;99.90;;;;;;4985614;28;20269;-73
2021/01/14 03:01:41;;;;;;;7.90;5.18;;;3.50;99.90;;;;;;4983145;28;20248;-73
2021/01/14 03:04:26;;;;;;;11.85;5.70;;;3.50;99.90;;;;;;4988456;28;20223;-74
2021/01/14 03:07:12;;;;;;;8.63;5.22;;;3.50;99.90;;;;;;4989566;28;20262;-73
2021/01/14 03:09:57;;;;;;;9.77;5.13;;;3.50;99.90;;;;;;4987250;28;20350;-73
2021/01/14 03:12:42;;;;;;;10.75;5.45;;;3.50;99.90;;;;;;4980830;28;20259;-74
2021/01/14 03:15:27;;;;;;;11.00;5.95;;;3.50;99.90;;;;;;4984552;28;20245;-74
2021/01/14 03:18:14;;;;;;;7.90;5.85;;;3.40;99.90;;;;;;4985016;28;20210;-73
2021/01/14 03:20:59;;;;;;;12.88;5.60;;;3.30;99.90;;;;;;4985406;28;20270;-73
2021/01/14 03:23:44;;;;;;;12.80;6.75;;;3.20;99.90;;;;;;4983255;28;20247;-73
2021/01/14 03:26:29;;;;;;;9.60;6.53;;;3.20;99.90;;;;;;4992548;28;20198;-73
2021/01/14 03:29:14;;;;;;;11.82;6.50;;;3.20;99.90;;;;;;4985971;28;20226;-73
2021/01/14 03:32:01;;;;;;;18.17;6.78;;;3.30;99.90;;;;;;4983399;28;20732;-73
2021/01/14 03:34:47;;;;;;;17.90;6.45;;;3.30;99.90;;;;;;4984121;28;20876;-74
2021/01/14 03:37:32;;;;;;;11.57;6.55;;;3.10;99.90;;;;;;4985685;28;20210;-73
2021/01/14 03:40:17;;;;;;;12.73;6.93;;;3.20;99.90;;;;;;4983519;28;20222;-73
2021/01/14 03:43:03;;;;;;;18.30;6.78;;;3.20;99.90;;;;;;4986438;28;20359;-73
2021/01/14 03:45:48;;;;;;;18.88;6.75;;;3.20;99.90;;;;;;4984306;28;20206;-73
2021/01/14 03:48:38;;;;;;;13.30;8.55;;;3.30;99.90;;;;;;4985366;28;20215;-73
2021/01/14 03:51:24;;;;;;;16.65;7.47;;;3.30;99.90;;;;;;4988488;28;20198;-73
2021/01/14 03:54:10;;;;;;;11.38;7.25;;;3.30;99.90;;;;;;4983458;28;20207;-74
2021/01/14 03:56:55;;;;;;;9.35;6.72;;;3.30;99.90;;;;;;4984079;28;20860;-73
2021/01/14 03:59:40;;;;;;;16.73;6.90;;;3.40;99.90;;;;;;4984029;28;20270;-74
2021/01/14 04:02:25;;;;;;;13.63;6.80;;;3.30;99.90;;;;;;4983896;28;20708;-74
2021/01/14 04:05:12;;;;;;;14.48;7.50;;;3.30;99.90;;;;;;4985140;28;20209;-73
2021/01/14 04:07:58;;;;;;;12.63;7.15;;;3.30;99.90;;;;;;4987403;28;20685;-73
2021/01/14 04:10:43;;;;;;;13.00;6.25;;;3.30;99.90;;;;;;4977491;28;20265;-72
2021/01/14 04:13:29;;;;;;;11.05;5.65;;;3.30;99.90;;;;;;4986942;28;20646;-73
2021/01/14 04:16:14;;;;;;;16.50;6.45;;;3.30;99.90;;;;;;4983332;28;20246;-72
2021/01/14 04:18:59;;;;;;;12.85;6.90;;;3.30;99.90;;;;;;4983867;28;20286;-72
2021/01/14 04:21:44;;;;;;;11.00;7.70;;;3.30;99.90;;;;;;4982979;28;20223;-72
2021/01/14 04:24:36;;;;;;;22.63;7.43;;;3.30;99.90;;;;;;4983747;28;20207;-73
2021/01/14 04:27:21;;;;;;;15.60;6.15;;;3.30;99.90;;;;;;4989394;28;20262;-72
2021/01/14 04:30:08;;;;;;;10.80;6.80;;;3.20;99.90;;;;;;4979339;28;20270;-72
2021/01/14 04:32:58;;;;;;;13.95;7.13;;;3.20;99.90;;;;;;4980427;28;20259;-72
2021/01/14 04:35:46;;;;;;;11.65;6.40;;;3.20;99.90;;;;;;4984612;28;20218;-72
2021/01/14 04:38:32;;;;;;;14.77;7.45;;;3.00;99.90;;;;;;4981139;28;20274;-72
2021/01/14 04:41:19;;;;;;;9.55;6.35;;;3.00;99.90;;;;;;4981283;28;20241;-72
2021/01/14 04:44:05;;;;;;;14.90;6.00;;;3.00;99.90;;;;;;4986408;28;20207;-72
2021/01/14 04:46:55;;;;;;;11.52;6.70;;;3.00;99.90;;;;;;4988239;28;20206;-72
2021/01/14 04:49:41;;;;;;;10.75;7.13;;;3.00;99.90;;;;;;4982506;28;20230;-73
2021/01/14 04:52:30;;;;;;;9.43;6.60;;;3.10;99.90;;;;;;4989257;28;20700;-72
2021/01/14 04:55:15;;;;;;;10.05;5.95;;;3.10;99.90;;;;;;4985768;28;20219;-73
2021/01/14 04:58:04;;;;;;;16.52;5.45;;;3.00;99.90;;;;;;4988855;28;20206;-72
2021/01/14 05:00:50;;;;;;;10.60;6.10;;;3.00;99.90;;;;;;4985860;28;20261;-72
2021/01/14 05:03:39;;;;;;;12.60;5.57;;;3.00;99.90;;;;;;4989573;28;20215;-72
2021/01/14 05:06:25;;;;;;;16.65;5.20;;;3.00;99.90;;;;;;4991455;28;20210;-72
2021/01/14 05:09:17;;;;;;;17.05;5.43;;;3.00;99.90;;;;;;4984713;28;20235;-74
2021/01/14 05:12:03;;;;;;;9.80;5.25;;;3.00;99.90;;;;;;4987842;28;20219;-72
2021/01/14 05:14:48;;;;;;;14.40;5.40;;;3.10;99.90;;;;;;4987914;28;20202;-72
2021/01/14 05:17:34;;;;;;;12.63;5.38;;;3.20;99.90;;;;;;4990154;28;20283;-73
2021/01/14 05:20:20;;;;;;;17.05;5.00;;;3.30;99.90;;;;;;4987531;28;20270;-72
2021/01/14 05:23:06;;;;;;;6.38;3.97;;;3.40;99.90;;;;;;4985065;28;20698;-72
2021/01/14 05:25:54;;;;;;;14.77;5.18;;;3.40;99.90;;;;;;4985090;28;20203;-72
2021/01/14 05:28:39;;;;;;;8.32;4.05;;;3.50;99.90;;;;;;4989427;28;20271;-72
2021/01/14 05:31:26;;;;;;;9.38;4.35;;;3.50;99.90;;;;;;4988682;28;20250;-72
2021/01/14 05:34:14;;;;;;;7.35;4.38;;;3.50;99.90;;;;;;4986850;28;20583;-72
2021/01/14 05:37:03;;;;;;;16.98;5.45;;;3.50;99.90;;;;;;4987056;28;20215;-74
2021/01/14 05:39:48;;;;;;;13.25;4.20;;;3.50;99.90;;;;;;4990302;28;20291;-74
2021/01/14 05:42:33;;;;;;;11.70;4.53;;;3.30;99.90;;;;;;4991101;28;20210;-74
2021/01/14 05:45:22;;;;;;;11.27;4.55;;;3.30;99.90;;;;;;4990911;28;20221;-74
2021/01/14 05:48:10;;;;;;;10.55;4.50;;;3.30;99.90;;;;;;4983616;28;20301;-74
2021/01/14 05:50:56;;;;;;;8.40;4.50;;;3.20;99.90;;;;;;4988103;28;20226;-74
2021/01/14 05:53:54;;;;;;;9.30;4.20;;;3.10;99.90;;;;;;4985161;28;20211;-73
2021/01/14 05:56:42;;;;;;;10.15;4.13;;;2.90;99.90;;;;;;4982838;28;20203;-73
2021/01/14 05:59:33;;;;;;;12.55;4.28;;;2.90;99.90;;;;;;4985421;28;20222;-73
2021/01/14 06:02:28;;;;;;;9.52;4.30;;;2.80;99.90;;;;;;4981260;28;20857;-73
2021/01/14 06:05:27;;;;;;;9.52;4.45;;;2.80;99.90;;;;;;4986705;28;20592;-73
2021/01/14 06:08:21;;;;;;;5.00;3.40;;;2.90;99.90;;;;;;4987039;28;20250;-73
2021/01/14 06:11:18;;;;;;;9.00;4.13;;;2.80;99.90;;;;;;4989539;28;20604;-73
2021/01/14 06:14:03;;;;;;;16.15;4.82;;;2.70;99.90;;;;;;4988140;28;20219;-73
2021/01/14 06:16:50;;;;;;;6.35;3.70;;;2.80;99.90;;;;;;4994303;28;20292;-73
2021/01/14 06:19:36;;;;;;;10.88;3.63;;;2.70;99.90;;;;;;4984731;28;20222;-73
2021/01/14 06:22:22;;;;;;;14.27;5.85;;;2.70;99.90;;;;;;4984675;28;20210;-73
2021/01/14 06:25:08;;;;;;;6.35;3.67;;;2.60;99.90;;;;;;4987204;28;20223;-73
2021/01/14 06:27:55;;;;;;;6.15;3.60;;;2.50;99.90;;;;;;4984086;28;20210;-73
2021/01/14 06:30:57;;;;;;;6.13;3.55;;;2.40;99.90;;;;;;4984331;28;20315;-73
2021/01/14 06:33:45;;;;;;;13.15;5.90;;;2.40;99.90;;;;;;4987264;28;20673;-73
2021/01/14 06:36:33;;;;;;;7.63;5.00;;;2.40;99.90;;;;;;4983280;28;20207;-73
2021/01/14 06:39:20;;;;;;;12.68;4.18;;;2.40;99.90;;;;;;4986544;28;20302;-72
2021/01/14 06:42:17;;;;;;;14.32;4.30;;;2.50;99.90;;;;;;4989484;28;20223;-73
2021/01/14 06:45:04;;;;;;;9.52;4.15;;;2.60;99.90;;;;;;4989960;28;20250;-72
2021/01/14 06:47:56;;;;;;;8.70;4.63;;;2.60;99.90;;;;;;4981247;28;20211;-73
2021/01/14 06:50:49;;;;;;;12.15;4.68;;;2.70;99.90;;;;;;4980596;28;20239;-73
2021/01/14 06:53:37;;;;;;;9.60;4.30;;;2.80;99.90;;;;;;4982911;28;20689;-73
2021/01/14 06:56:24;;;;;;;14.35;3.60;;;2.80;99.90;;;;;;4983001;28;20219;-73
2021/01/14 06:59:15;;;;;;;12.70;3.90;;;2.90;99.90;;;;;;4983411;28;20231;-73
2021/01/14 07:02:46;;;;;;;12.63;4.10;;;2.90;99.90;;;;;;4984226;28;20609;-73
2021/01/14 07:05:38;;;;;;;10.45;4.35;;;2.90;99.90;;;;;;4988892;28;20269;-73
2021/01/14 07:08:30;;;;;;;12.48;5.28;;;2.80;99.90;;;;;;4982596;28;20245;-72
2021/01/14 07:11:17;;;;;;;6.35;2.80;;;2.80;99.90;;;;;;4987643;28;20222;-73
2021/01/14 07:14:13;;;;;;;8.43;3.60;;;2.80;99.90;;;;;;4996731;28;20640;-73
2021/01/14 07:16:59;;;;;;;6.43;3.55;;;2.80;99.90;;;;;;4986494;28;20277;-73
2021/01/14 07:19:44;;;;;;;33.70;18.80;;;2.80;99.90;;;;;;4980593;28;20222;-73
2021/01/14 07:22:31;;;;;;;21.83;12.88;;;2.80;99.90;;;;;;4983301;28;20222;-73
2021/01/14 07:25:18;;;;;;;6.88;4.53;;;2.70;99.90;;;;;;4980966;28;20258;-73
2021/01/14 07:28:04;;;;;;;14.60;10.65;;;2.60;99.90;;;;;;4987252;28;20212;-72
2021/01/14 07:30:50;;;;;;;7.07;3.15;;;2.50;99.90;;;;;;4984354;28;20230;-72
2021/01/14 07:33:35;;;;;;;6.38;3.88;;;2.60;99.90;;;;;;4977015;28;20203;-72
2021/01/14 07:36:24;;;;;;;12.73;3.10;;;2.40;99.90;;;;;;4976693;28;20262;-72
2021/01/14 07:39:09;;;;;;;5.35;2.10;;;2.50;99.90;;;;;;4983497;28;20616;-73
2021/01/14 07:41:57;;;;;;;9.48;2.45;;;2.50;99.90;;;;;;4989915;28;20207;-73
2021/01/14 07:44:49;;;;;;;5.38;2.55;;;2.50;99.90;;;;;;4986438;28;20199;-73
2021/01/14 07:47:37;;;;;;;7.05;2.38;;;2.50;99.90;;;;;;4987668;28;20203;-73
2021/01/14 07:50:24;;;;;;;6.35;2.90;;;2.50;99.90;;;;;;4984317;28;20286;-73
2021/01/14 07:53:15;;;;;;;6.95;2.80;;;2.50;99.90;;;;;;4982661;28;20269;-72
2021/01/14 07:56:27;;;;;;;7.50;2.38;;;2.50;99.90;;;;;;4982726;28;20251;-73
2021/01/14 07:59:13;;;;;;;7.13;2.50;;;2.60;99.90;;;;;;4984309;28;20234;-73
2021/01/14 08:02:07;;;;;;;8.10;2.58;;;2.50;99.90;;;;;;4979245;28;20210;-73
2021/01/14 08:04:53;;;;;;;7.00;3.47;;;2.40;99.90;;;;;;4993942;28;20289;-73
2021/01/14 08:07:39;;;;;;;7.03;2.40;;;2.50;99.90;;;;;;4987994;28;20274;-72
2021/01/14 08:10:24;;;;;;;6.00;2.42;;;2.40;99.90;;;;;;4986781;28;20234;-72
2021/01/14 08:13:10;;;;;;;10.90;2.50;;;2.40;99.90;;;;;;4984498;28;20199;-72
2021/01/14 08:15:55;;;;;;;5.18;2.67;;;2.50;99.90;;;;;;4993373;28;20206;-72
2021/01/14 08:18:40;;;;;;;20.55;4.13;;;2.50;99.90;;;;;;4985799;28;20234;-72
2021/01/14 08:21:29;;;;;;;9.57;2.25;;;2.60;99.90;;;;;;4986042;28;20608;-72
2021/01/14 08:24:33;;;;;;;11.20;2.30;;;2.40;99.90;;;;;;4982416;28;20202;-72
2021/01/14 08:27:32;;;;;;;6.72;2.40;;;2.40;99.90;;;;;;4978544;28;20736;-72
2021/01/14 08:30:19;;;;;;;8.98;2.10;;;2.40;99.90;;;;;;4978544;28;20355;-72
2021/01/14 08:33:08;;;;;;;5.88;2.13;;;2.50;99.90;;;;;;4984781;28;20211;-72
2021/01/14 08:36:04;;;;;;;4.38;1.92;;;2.30;99.90;;;;;;4984554;28;20207;-72
2021/01/14 08:38:53;;;;;;;8.77;2.40;;;2.40;99.90;;;;;;4982460;28;20672;-72
2021/01/14 08:41:38;;;;;;;4.78;1.75;;;2.50;99.90;;;;;;4985875;28;20250;-72
2021/01/14 08:44:31;;;;;;;4.88;2.25;;;2.60;99.90;;;;;;4988123;28;20213;-73
2021/01/14 08:47:16;;;;;;;3.10;2.17;;;2.60;99.90;;;;;;4987411;28;20211;-72
2021/01/14 08:50:05;;;;;;;6.75;2.25;;;2.60;99.90;;;;;;4980659;28;20329;-72
2021/01/14 08:52:53;;;;;;;11.00;2.63;;;2.70;99.90;;;;;;4981694;28;20290;-73
2021/01/14 08:55:40;;;;;;;8.00;2.05;;;2.70;99.90;;;;;;4991688;28;20566;-72
2021/01/14 08:58:39;;;;;;;6.30;2.35;;;2.60;99.90;;;;;;4983882;28;20328;-72
2021/01/14 09:01:26;;;;;;;14.55;2.72;;;2.70;99.90;;;;;;4982098;28;20230;-73
2021/01/14 09:04:11;;;;;;;14.57;2.90;;;2.90;99.90;;;;;;4979727;28;20310;-72
2021/01/14 09:06:56;;;;;;;14.77;3.17;;;2.90;99.90;;;;;;4981843;28;20255;-72
2021/01/14 09:09:41;;;;;;;6.30;2.83;;;2.80;99.90;;;;;;4985033;28;20242;-73
2021/01/14 09:12:27;;;;;;;5.43;2.72;;;2.90;99.90;;;;;;4986752;28;20306;-72
2021/01/14 09:15:25;;;;;;;11.20;1.95;;;3.00;99.90;;;;;;4986703;28;20214;-72
2021/01/14 09:18:11;;;;;;;5.72;2.25;;;3.00;99.90;;;;;;4990985;28;20262;-72
2021/01/14 09:20:56;;;;;;;5.25;2.70;;;3.00;99.90;;;;;;4984165;28;20747;-72
2021/01/14 09:23:41;;;;;;;4.47;2.00;;;3.00;99.90;;;;;;4982607;28;20230;-72
2021/01/14 09:26:27;;;;;;;4.65;1.90;;;3.00;99.90;;;;;;4986984;28;20285;-72
2021/01/14 09:29:13;;;;;;;4.85;1.95;;;3.10;99.90;;;;;;4988517;28;20727;-72
2021/01/14 09:31:59;;;;;;;7.30;2.40;;;3.10;99.90;;;;;;4989361;28;20214;-72
2021/01/14 09:34:44;;;;;;;8.63;2.03;;;3.00;99.90;;;;;;4985729;28;20214;-72
2021/01/14 09:37:29;;;;;;;8.15;1.90;;;3.00;99.90;;;;;;4992451;28;20295;-72
2021/01/14 09:40:15;;;;;;;6.05;2.70;;;3.20;99.90;;;;;;4989396;28;20723;-72
2021/01/14 09:43:01;;;;;;;11.45;3.20;;;3.30;99.90;;;;;;4986991;28;20250;-72
2021/01/14 09:45:48;;;;;;;4.30;2.80;;;3.30;99.90;;;;;;4987965;28;20584;-72
2021/01/14 09:48:33;;;;;;;4.50;3.15;;;3.30;99.90;;;;;;4986911;28;20238;-72
2021/01/14 09:51:19;;;;;;;6.07;2.50;;;3.40;99.90;;;;;;4992292;28;20595;-72
2021/01/14 09:54:05;;;;;;;7.35;2.70;;;3.40;99.90;;;;;;4983229;28;20589;-72
2021/01/14 09:56:53;;;;;;;5.55;3.33;;;3.30;99.90;;;;;;4978213;28;20292;-72
2021/01/14 09:59:40;;;;;;;5.75;2.85;;;3.40;99.90;;;;;;4985123;28;20326;-72
2021/01/14 10:02:30;;;;;;;10.15;3.55;;;3.30;99.90;;;;;;4985739;28;20234;-73
2021/01/14 10:05:16;;;;;;;8.75;3.67;;;3.40;99.90;;;;;;4991582;28;20290;-73
2021/01/14 10:08:10;;;;;;;8.93;4.43;;;3.40;99.90;;;;;;4993220;28;20258;-73
2021/01/14 10:10:56;;;;;;;8.43;4.10;;;3.60;99.90;;;;;;4979467;28;20775;-73
2021/01/14 10:13:48;;;;;;;11.20;4.47;;;3.70;99.90;;;;;;4989289;28;20238;-73
2021/01/14 10:16:34;;;;;;;10.35;5.30;;;3.60;99.90;;;;;;4996607;28;20570;-73
2021/01/14 10:19:21;;;;;;;9.07;5.50;;;3.60;99.90;;;;;;4989632;28;20226;-73
2021/01/14 10:22:07;;;;;;;18.55;6.40;;;3.60;99.90;;;;;;4997756;28;20211;-75
2021/01/14 10:25:06;;;;;;;11.65;6.05;;;3.70;99.90;;;;;;4995968;28;20250;-74
2021/01/14 10:27:59;;;;;;;10.73;5.60;;;3.70;99.90;;;;;;4996065;28;20221;-74
2021/01/14 10:30:44;;;;;;;13.57;6.60;;;3.70;99.90;;;;;;4990563;28;20643;-73
2021/01/14 10:33:28;;;;;;;13.32;5.40;;;3.60;99.90;;;;;;4985230;28;20285;-74
2021/01/14 10:36:15;;;;;;;19.50;7.75;;;3.80;99.90;;;;;;4988757;28;20249;-73
2021/01/14 10:39:00;;;;;;;9.73;5.47;;;3.80;99.90;;;;;;4989187;28;20214;-73
2021/01/14 10:41:46;;;;;;;12.98;5.88;;;3.90;99.90;;;;;;4985658;28;20290;-74
2021/01/14 10:44:31;;;;;;;9.27;5.18;;;4.00;99.90;;;;;;4984817;28;20616;-73
2021/01/14 10:47:16;;;;;;;15.40;7.07;;;4.00;99.90;;;;;;4988783;28;20680;-74
2021/01/14 10:50:17;;;;;;;12.48;7.00;;;4.00;99.90;;;;;;4987334;28;20911;-73
2021/01/14 10:53:04;;;;;;;9.27;5.55;;;4.00;99.90;;;;;;4986925;28;20250;-73
2021/01/14 10:56:01;;;;;;;11.90;5.13;;;4.00;99.90;;;;;;4987472;28;20222;-73
2021/01/14 10:58:55;;;;;;;9.75;5.95;;;4.10;99.90;;;;;;4981096;28;20324;-73
2021/01/14 11:01:40;;;;;;;12.80;3.97;;;4.20;99.90;;;;;;4983976;28;20199;-73
2021/01/14 11:04:25;;;;;;;11.80;4.25;;;4.20;99.90;;;;;;4986924;28;20605;-72
2021/01/14 11:07:13;;;;;;;11.18;4.10;;;4.30;99.90;;;;;;4986521;28;20203;-73
2021/01/14 11:10:06;;;;;;;6.95;3.60;;;4.30;99.90;;;;;;4985853;28;20334;-74
2021/01/14 11:13:06;;;;;;;9.52;3.72;;;4.30;99.90;;;;;;4985788;28;20238;-73
2021/01/14 11:15:51;;;;;;;19.58;3.38;;;4.20;99.90;;;;;;4983540;28;20235;-74
2021/01/14 11:18:37;;;;;;;8.98;3.25;;;4.20;99.90;;;;;;4985587;28;20206;-73
2021/01/14 11:21:28;;;;;;;6.70;3.45;;;4.20;99.90;;;;;;4989191;28;20697;-74
2021/01/14 11:24:14;;;;;;;8.60;3.38;;;4.20;99.90;;;;;;4984162;28;20582;-74
2021/01/14 11:27:00;;;;;;;10.88;4.40;;;4.10;99.90;;;;;;4984402;28;20238;-75
2021/01/14 11:29:45;;;;;;;17.80;4.97;;;4.10;99.90;;;;;;4981290;28;20281;-75
2021/01/14 11:32:32;;;;;;;11.07;4.28;;;4.20;99.90;;;;;;4983304;28;20250;-75
2021/01/14 11:35:18;;;;;;;8.00;3.25;;;4.40;99.90;;;;;;4981707;28;20283;-73
2021/01/14 11:38:02;;;;;;;6.25;3.67;;;4.40;99.90;;;;;;4984710;28;20249;-73
2021/01/14 11:40:48;;;;;;;10.73;3.85;;;4.50;99.90;;;;;;4979036;28;20414;-73
2021/01/14 11:43:35;;;;;;;7.53;3.33;;;4.60;99.90;;;;;;4986777;28;20254;-73
2021/01/14 11:46:24;;;;;;;10.02;4.20;;;4.60;99.90;;;;;;4986237;28;20294;-73
2021/01/14 11:49:09;;;;;;;7.97;3.45;;;4.60;99.90;;;;;;4982481;28;20634;-73
2021/01/14 11:51:54;;;;;;;10.18;3.10;;;4.60;99.90;;;;;;4985194;28;20226;-73
2021/01/14 11:54:40;;;;;;;14.23;3.20;;;4.60;99.90;;;;;;4982486;28;20214;-73
2021/01/14 11:57:28;;;;;;;10.57;3.20;;;4.40;99.90;;;;;;4989960;28;20245;-73
2021/01/14 12:00:16;;;;;;;12.02;3.70;;;4.40;99.90;;;;;;4988040;28;20231;-73
2021/01/14 12:03:01;;;;;;;8.77;3.70;;;4.40;99.90;;;;;;4982364;28;20225;-73
2021/01/14 12:05:47;;;;;;;11.60;3.63;;;4.30;99.90;;;;;;4985344;28;20203;-73
2021/01/14 12:08:31;;;;;;;9.20;3.15;;;4.20;99.90;;;;;;4985098;28;20219;-73
2021/01/14 12:11:18;;;;;;;12.00;3.28;;;4.20;99.90;;;;;;4981659;28;20229;-73
2021/01/14 12:14:03;;;;;;;12.25;3.50;;;4.30;99.90;;;;;;4985604;28;20234;-74
2021/01/14 12:16:49;;;;;;;10.73;3.72;;;4.40;99.90;;;;;;4984263;28;20216;-73
2021/01/14 12:19:34;;;;;;;8.73;3.83;;;4.40;99.90;;;;;;4981244;28;20327;-73
2021/01/14 12:22:19;;;;;;;8.50;3.78;;;4.40;99.90;;;;;;4983001;28;20210;-73
2021/01/14 12:25:05;;;;;;;7.22;3.25;;;4.40;99.90;;;;;;4983093;28;20294;-74
2021/01/14 12:27:50;;;;;;;6.47;3.10;;;4.50;99.90;;;;;;4976317;28;20753;-73
2021/01/14 12:30:35;;;;;;;11.18;2.90;;;4.40;99.90;;;;;;4982075;28;20298;-74
2021/01/14 12:33:21;;;;;;;8.55;3.00;;;4.40;99.90;;;;;;4980399;28;20752;-74
2021/01/14 12:36:07;;;;;;;6.50;2.47;;;4.40;99.90;;;;;;4984949;28;20247;-73
2021/01/14 12:38:52;;;;;;;13.02;2.92;;;4.50;99.90;;;;;;4983109;28;20274;-73
2021/01/14 12:41:38;;;;;;;5.05;2.33;;;4.50;99.90;;;;;;4985306;28;20295;-73
2021/01/14 12:44:24;;;;;;;7.43;2.90;;;4.50;99.90;;;;;;4982703;28;20207;-74
2021/01/14 12:47:09;;;;;;;7.00;3.08;;;4.50;99.90;;;;;;4979141;28;20239;-73
2021/01/14 12:49:55;;;;;;;15.30;4.07;;;4.50;99.90;;;;;;4986268;28;20281;-73
2021/01/14 12:52:40;;;;;;;6.82;3.03;;;4.60;99.90;;;;;;4984297;28;20241;-73
2021/01/14 12:55:26;;;;;;;8.63;2.92;;;4.60;99.90;;;;;;4983643;28;20623;-74
2021/01/14 12:58:11;;;;;;;16.67;4.35;;;4.70;99.90;;;;;;4982636;28;20287;-72
2021/01/14 13:00:56;;;;;;;6.10;3.38;;;4.70;99.90;;;;;;4982991;28;20307;-73
2021/01/14 13:03:41;;;;;;;5.07;2.65;;;4.70;99.90;;;;;;4987595;28;20273;-73
2021/01/14 13:06:29;;;;;;;6.68;3.00;;;4.50;99.90;;;;;;4984909;28;20207;-73
2021/01/14 13:09:14;;;;;;;10.68;2.72;;;4.60;99.90;;;;;;4989122;28;20309;-73
2021/01/14 13:11:59;;;;;;;9.48;2.60;;;4.50;99.90;;;;;;4989421;28;20274;-73
2021/01/14 13:14:45;;;;;;;15.40;3.05;;;4.40;99.90;;;;;;4990884;28;20283;-73
2021/01/14 13:17:30;;;;;;;9.02;2.83;;;4.50;99.90;;;;;;4987711;28;20202;-73
2021/01/14 13:20:15;;;;;;;6.45;3.30;;;4.40;99.90;;;;;;4985580;28;20214;-73
2021/01/14 13:23:02;;;;;;;11.70;5.28;;;4.40;99.90;;;;;;4988183;28;20668;-73
2021/01/14 13:25:47;;;;;;;10.38;4.22;;;4.40;99.90;;;;;;4988631;28;20207;-73
2021/01/14 13:28:32;;;;;;;11.20;3.47;;;4.40;99.90;;;;;;4988102;28;20207;-73
2021/01/14 13:31:18;;;;;;;13.73;3.22;;;4.50;99.90;;;;;;4984960;28;20229;-73
2021/01/14 13:34:03;;;;;;;5.75;3.25;;;4.60;99.90;;;;;;4980838;28;20263;-74
2021/01/14 13:36:51;;;;;;;11.68;3.65;;;4.50;99.90;;;;;;4985759;28;20279;-73
2021/01/14 13:39:37;;;;;;;8.52;3.40;;;4.50;99.90;;;;;;4987621;28;20227;-73
2021/01/14 13:42:23;;;;;;;8.00;4.10;;;4.50;99.90;;;;;;4990514;28;20207;-73
2021/01/14 13:45:09;;;;;;;11.68;4.07;;;4.60;99.90;;;;;;4984144;28;20214;-74
2021/01/14 13:47:54;;;;;;;8.77;4.60;;;4.60;99.90;;;;;;4985462;28;20216;-73
2021/01/14 13:50:39;;;;;;;5.97;3.83;;;4.50;99.90;;;;;;4988487;28;20270;-74
2021/01/14 13:53:25;;;;;;;7.38;3.70;;;4.40;99.90;;;;;;4986553;28;20250;-74
2021/01/14 13:56:10;;;;;;;7.93;3.85;;;4.40;99.90;;;;;;4986977;28;20263;-74
2021/01/14 13:58:55;;;;;;;13.65;3.72;;;4.40;99.90;;;;;;4985175;28;20716;-73
2021/01/14 14:01:43;;;;;;;7.68;3.42;;;4.30;99.90;;;;;;4987137;28;20242;-74
2021/01/14 14:04:29;;;;;;;9.35;3.78;;;4.30;99.90;;;;;;4984948;28;20897;-71
2021/01/14 14:07:14;;;;;;;15.63;9.35;;;4.30;99.90;;;;;;4988342;28;20202;-75
2021/01/14 14:09:59;;;;;;;7.85;5.07;;;4.20;99.90;;;;;;4983711;28;20637;-75
2021/01/14 14:12:45;;;;;;;13.93;6.80;;;4.30;99.90;;;;;;4983712;28;20771;-74
2021/01/14 14:15:30;;;;;;;15.40;5.60;;;4.30;99.90;;;;;;4985793;28;20287;-74
2021/01/14 14:18:15;;;;;;;17.77;5.70;;;4.20;99.90;;;;;;4980595;28;20236;-74
2021/01/14 14:21:00;;;;;;;10.50;4.28;;;4.30;99.90;;;;;;4984987;28;20716;-74
2021/01/14 14:23:46;;;;;;;12.52;6.10;;;4.20;99.90;;;;;;4983668;28;20596;-74
2021/01/14 14:26:32;;;;;;;10.68;5.32;;;4.20;99.90;;;;;;4985467;28;20242;-73
2021/01/14 14:29:18;;;;;;;9.90;5.88;;;4.10;99.90;;;;;;4980754;28;20242;-74
2021/01/14 14:32:04;;;;;;;7.82;3.67;;;4.10;99.90;;;;;;4983354;28;20270;-74
2021/01/14 14:34:49;;;;;;;9.25;3.30;;;4.00;99.90;;;;;;4979698;28;20254;-74
2021/01/14 14:37:34;;;;;;;8.60;5.15;;;3.90;99.90;;;;;;4981761;28;20202;-73